Terminal Aerodrome Forecast
Issued by NWS

Home | Current Version | Previous Version | Text Only | Print | Product List | Glossary On
Versions: 1 2 3 4 5 6 7 8 9 10 11 12 13 14 15 16 17 18 19 20 21 22 23 24 25 26 27 28 29 30 31 32 33 34 35 36 37 38 39 40 41 42 43 44 45 46 47 48 49 50
000
FTUS46 KLOX 161417 AAC
TAFPMD
TAF AMD
KPMD 161417Z 1614/1712 VRB05KT P6SM SCT004 SCT020 BKN035
     FM161600 22010KT 6SM -RA BR OVC015
     FM162000 14006KT 6SM RA BR BKN035 OVC070
     FM170300 21010KT 6SM RA OVC025
     FM171100 16016KT 2SM RA BR OVC010=

USA.gov is the U.S. government's official web portal to all federal, state and local government web resources and services.